sensor_id;sensor_type;location;lat;lon;timestamp;P1;durP1;ratioP1;P2;durP2;ratioP2
7829;SDS011;3960;51.86894000;5.39848000;2024-03-29T00:00:19;10.27;;;1.43;;
7829;SDS011;3960;51.86894000;5.39848000;2024-03-29T00:02:44;3.33;;;0.77;;
7829;SDS011;3960;51.86894000;5.39848000;2024-03-29T00:05:09;4.40;;;1.10;;
7829;SDS011;3960;51.86894000;5.39848000;2024-03-29T00:07:34;3.92;;;1.00;;
7829;SDS011;3960;51.86894000;5.39848000;2024-03-29T00:10:00;4.53;;;1.10;;
7829;SDS011;3960;51.86894000;5.39848000;2024-03-29T00:12:25;9.00;;;1.50;;
7829;SDS011;3960;51.86894000;5.39848000;2024-03-29T00:14:50;7.10;;;1.40;;
7829;SDS011;3960;51.86894000;5.39848000;2024-03-29T00:17:16;7.55;;;1.35;;
7829;SDS011;3960;51.86894000;5.39848000;2024-03-29T00:19:41;3.92;;;1.25;;
7829;SDS011;3960;51.86894000;5.39848000;2024-03-29T00:22:06;7.03;;;1.20;;
7829;SDS011;3960;51.86894000;5.39848000;2024-03-29T00:24:32;5.38;;;1.30;;
7829;SDS011;3960;51.86894000;5.39848000;2024-03-29T00:26:58;5.50;;;1.00;;
7829;SDS011;3960;51.86894000;5.39848000;2024-03-29T00:29:23;6.72;;;1.48;;
7829;SDS011;3960;51.86894000;5.39848000;2024-03-29T00:31:48;6.83;;;1.70;;
7829;SDS011;3960;51.86894000;5.39848000;2024-03-29T00:34:13;5.00;;;1.10;;
7829;SDS011;3960;51.86894000;5.39848000;2024-03-29T00:36:38;4.73;;;1.03;;
7829;SDS011;3960;51.86894000;5.39848000;2024-03-29T00:39:04;6.13;;;1.10;;
7829;SDS011;3960;51.86894000;5.39848000;2024-03-29T00:41:29;4.53;;;1.15;;
7829;SDS011;3960;51.86894000;5.39848000;2024-03-29T00:43:54;5.53;;;1.17;;
7829;SDS011;3960;51.86894000;5.39848000;2024-03-29T00:46:19;3.73;;;1.20;;
7829;SDS011;3960;51.86894000;5.39848000;2024-03-29T00:48:45;9.23;;;1.58;;
7829;SDS011;3960;51.86894000;5.39848000;2024-03-29T00:51:12;4.78;;;1.13;;
7829;SDS011;3960;51.86894000;5.39848000;2024-03-29T00:53:37;6.13;;;1.07;;
7829;SDS011;3960;51.86894000;5.39848000;2024-03-29T00:56:02;4.05;;;1.23;;
7829;SDS011;3960;51.86894000;5.39848000;2024-03-29T00:58:28;4.38;;;1.13;;
7829;SDS011;3960;51.86894000;5.39848000;2024-03-29T01:00:53;2.70;;;0.90;;
7829;SDS011;3960;51.86894000;5.39848000;2024-03-29T01:03:19;3.63;;;1.30;;
7829;SDS011;3960;51.86894000;5.39848000;2024-03-29T01:05:44;4.07;;;0.80;;
7829;SDS011;3960;51.86894000;5.39848000;2024-03-29T01:08:09;2.45;;;0.95;;
7829;SDS011;3960;51.86894000;5.39848000;2024-03-29T01:10:35;2.58;;;0.80;;
7829;SDS011;3960;51.86894000;5.39848000;2024-03-29T01:13:00;4.20;;;1.27;;
7829;SDS011;3960;51.86894000;5.39848000;2024-03-29T01:15:25;4.20;;;1.10;;
7829;SDS011;3960;51.86894000;5.39848000;2024-03-29T01:17:50;8.20;;;1.05;;
7829;SDS011;3960;51.86894000;5.39848000;2024-03-29T01:20:15;3.37;;;1.00;;
7829;SDS011;3960;51.86894000;5.39848000;2024-03-29T01:22:41;4.50;;;1.33;;
7829;SDS011;3960;51.86894000;5.39848000;2024-03-29T01:25:06;5.20;;;1.00;;
7829;SDS011;3960;51.86894000;5.39848000;2024-03-29T01:27:33;4.97;;;1.10;;
7829;SDS011;3960;51.86894000;5.39848000;2024-03-29T01:29:58;4.30;;;1.03;;
7829;SDS011;3960;51.86894000;5.39848000;2024-03-29T01:32:24;6.77;;;1.20;;
7829;SDS011;3960;51.86894000;5.39848000;2024-03-29T01:34:49;4.80;;;1.60;;
7829;SDS011;3960;51.86894000;5.39848000;2024-03-29T01:37:14;8.40;;;1.20;;
7829;SDS011;3960;51.86894000;5.39848000;2024-03-29T01:39:39;5.38;;;1.20;;
7829;SDS011;3960;51.86894000;5.39848000;2024-03-29T01:42:04;6.63;;;1.40;;
7829;SDS011;3960;51.86894000;5.39848000;2024-03-29T01:44:30;4.50;;;1.10;;
7829;SDS011;3960;51.86894000;5.39848000;2024-03-29T01:46:55;5.47;;;1.10;;
7829;SDS011;3960;51.86894000;5.39848000;2024-03-29T01:49:21;3.78;;;0.95;;
7829;SDS011;3960;51.86894000;5.39848000;2024-03-29T01:51:46;4.05;;;1.02;;
7829;SDS011;3960;51.86894000;5.39848000;2024-03-29T01:54:11;2.30;;;1.00;;
7829;SDS011;3960;51.86894000;5.39848000;2024-03-29T01:56:37;4.53;;;1.30;;
7829;SDS011;3960;51.86894000;5.39848000;2024-03-29T01:59:03;7.18;;;1.02;;
7829;SDS011;3960;51.86894000;5.39848000;2024-03-29T02:01:28;6.13;;;1.85;;
7829;SDS011;3960;51.86894000;5.39848000;2024-03-29T02:03:54;2.92;;;0.93;;
7829;SDS011;3960;51.86894000;5.39848000;2024-03-29T02:06:20;3.58;;;1.17;;
7829;SDS011;3960;51.86894000;5.39848000;2024-03-29T02:08:46;3.35;;;1.30;;
7829;SDS011;3960;51.86894000;5.39848000;2024-03-29T02:11:14;7.00;;;1.23;;
7829;SDS011;3960;51.86894000;5.39848000;2024-03-29T02:13:39;8.17;;;1.30;;
7829;SDS011;3960;51.86894000;5.39848000;2024-03-29T02:16:06;4.43;;;1.58;;
7829;SDS011;3960;51.86894000;5.39848000;2024-03-29T02:18:31;5.53;;;1.10;;
7829;SDS011;3960;51.86894000;5.39848000;2024-03-29T02:20:56;6.23;;;1.20;;
7829;SDS011;3960;51.86894000;5.39848000;2024-03-29T02:23:29;2.17;;;1.23;;
7829;SDS011;3960;51.86894000;5.39848000;2024-03-29T02:25:55;4.55;;;1.17;;
7829;SDS011;3960;51.86894000;5.39848000;2024-03-29T02:28:21;3.13;;;0.90;;
7829;SDS011;3960;51.86894000;5.39848000;2024-03-29T02:30:47;5.47;;;1.20;;
7829;SDS011;3960;51.86894000;5.39848000;2024-03-29T02:33:12;7.22;;;1.10;;
7829;SDS011;3960;51.86894000;5.39848000;2024-03-29T02:35:37;5.57;;;1.10;;
7829;SDS011;3960;51.86894000;5.39848000;2024-03-29T02:38:02;5.45;;;1.35;;
7829;SDS011;3960;51.86894000;5.39848000;2024-03-29T02:40:28;6.03;;;1.30;;
7829;SDS011;3960;51.86894000;5.39848000;2024-03-29T02:42:53;8.80;;;1.75;;
7829;SDS011;3960;51.86894000;5.39848000;2024-03-29T02:45:18;3.13;;;1.20;;
7829;SDS011;3960;51.86894000;5.39848000;2024-03-29T02:47:43;3.20;;;1.08;;
7829;SDS011;3960;51.86894000;5.39848000;2024-03-29T02:50:09;3.07;;;0.90;;
7829;SDS011;3960;51.86894000;5.39848000;2024-03-29T02:52:35;5.97;;;1.05;;
7829;SDS011;3960;51.86894000;5.39848000;2024-03-29T02:55:00;5.80;;;1.20;;
7829;SDS011;3960;51.86894000;5.39848000;2024-03-29T02:57:25;2.85;;;0.88;;
7829;SDS011;3960;51.86894000;5.39848000;2024-03-29T02:59:51;3.63;;;1.38;;
7829;SDS011;3960;51.86894000;5.39848000;2024-03-29T03:02:16;3.43;;;1.20;;
7829;SDS011;3960;51.86894000;5.39848000;2024-03-29T03:04:41;5.25;;;0.90;;
7829;SDS011;3960;51.86894000;5.39848000;2024-03-29T03:07:06;3.08;;;1.00;;
7829;SDS011;3960;51.86894000;5.39848000;2024-03-29T03:09:50;3.35;;;0.90;;
7829;SDS011;3960;51.86894000;5.39848000;2024-03-29T03:12:34;3.10;;;0.90;;
7829;SDS011;3960;51.86894000;5.39848000;2024-03-29T03:15:00;2.25;;;0.80;;
7829;SDS011;3960;51.86894000;5.39848000;2024-03-29T03:17:28;5.95;;;1.17;;
7829;SDS011;3960;51.86894000;5.39848000;2024-03-29T03:19:53;2.55;;;0.98;;
7829;SDS011;3960;51.86894000;5.39848000;2024-03-29T03:22:18;4.95;;;1.13;;
7829;SDS011;3960;51.86894000;5.39848000;2024-03-29T03:24:44;2.50;;;1.00;;
7829;SDS011;3960;51.86894000;5.39848000;2024-03-29T03:27:09;2.40;;;0.90;;
7829;SDS011;3960;51.86894000;5.39848000;2024-03-29T03:29:34;3.75;;;1.02;;
7829;SDS011;3960;51.86894000;5.39848000;2024-03-29T03:31:59;2.70;;;0.87;;
7829;SDS011;3960;51.86894000;5.39848000;2024-03-29T03:34:25;2.95;;;0.88;;
7829;SDS011;3960;51.86894000;5.39848000;2024-03-29T03:36:50;3.60;;;0.90;;
7829;SDS011;3960;51.86894000;5.39848000;2024-03-29T03:39:15;3.97;;;0.90;;
7829;SDS011;3960;51.86894000;5.39848000;2024-03-29T03:41:40;3.22;;;0.63;;
7829;SDS011;3960;51.86894000;5.39848000;2024-03-29T03:44:06;2.37;;;0.90;;
7829;SDS011;3960;51.86894000;5.39848000;2024-03-29T03:46:31;7.10;;;0.87;;
7829;SDS011;3960;51.86894000;5.39848000;2024-03-29T03:48:56;3.08;;;1.10;;
7829;SDS011;3960;51.86894000;5.39848000;2024-03-29T03:51:21;3.20;;;0.80;;
7829;SDS011;3960;51.86894000;5.39848000;2024-03-29T03:53:46;1.93;;;1.10;;
7829;SDS011;3960;51.86894000;5.39848000;2024-03-29T03:56:12;2.23;;;0.80;;
7829;SDS011;3960;51.86894000;5.39848000;2024-03-29T03:58:37;3.20;;;0.80;;
7829;SDS011;3960;51.86894000;5.39848000;2024-03-29T04:01:05;3.80;;;0.77;;
7829;SDS011;3960;51.86894000;5.39848000;2024-03-29T04:03:30;2.95;;;0.85;;
7829;SDS011;3960;51.86894000;5.39848000;2024-03-29T04:05:56;1.35;;;0.50;;
7829;SDS011;3960;51.86894000;5.39848000;2024-03-29T04:08:21;2.95;;;0.80;;
7829;SDS011;3960;51.86894000;5.39848000;2024-03-29T04:10:47;2.15;;;0.55;;
7829;SDS011;3960;51.86894000;5.39848000;2024-03-29T04:13:12;2.40;;;0.93;;
7829;SDS011;3960;51.86894000;5.39848000;2024-03-29T04:15:37;4.67;;;0.80;;
7829;SDS011;3960;51.86894000;5.39848000;2024-03-29T04:18:03;3.30;;;0.98;;
7829;SDS011;3960;51.86894000;5.39848000;2024-03-29T04:20:28;3.97;;;0.68;;
7829;SDS011;3960;51.86894000;5.39848000;2024-03-29T04:22:53;3.28;;;0.90;;
7829;SDS011;3960;51.86894000;5.39848000;2024-03-29T04:25:18;6.73;;;1.57;;
7829;SDS011;3960;51.86894000;5.39848000;2024-03-29T04:27:44;10.00;;;0.77;;
7829;SDS011;3960;51.86894000;5.39848000;2024-03-29T04:30:09;3.23;;;0.60;;
7829;SDS011;3960;51.86894000;5.39848000;2024-03-29T04:32:34;4.00;;;0.90;;
7829;SDS011;3960;51.86894000;5.39848000;2024-03-29T04:35:00;3.00;;;0.88;;
7829;SDS011;3960;51.86894000;5.39848000;2024-03-29T04:37:25;4.68;;;0.98;;
7829;SDS011;3960;51.86894000;5.39848000;2024-03-29T04:39:50;2.47;;;0.73;;
7829;SDS011;3960;51.86894000;5.39848000;2024-03-29T04:42:15;3.15;;;0.70;;
7829;SDS011;3960;51.86894000;5.39848000;2024-03-29T04:44:41;3.13;;;0.90;;
7829;SDS011;3960;51.86894000;5.39848000;2024-03-29T04:47:06;6.00;;;0.80;;
7829;SDS011;3960;51.86894000;5.39848000;2024-03-29T04:49:32;1.92;;;0.70;;
7829;SDS011;3960;51.86894000;5.39848000;2024-03-29T04:52:01;1.02;;;0.50;;
7829;SDS011;3960;51.86894000;5.39848000;2024-03-29T04:54:27;3.22;;;0.70;;
7829;SDS011;3960;51.86894000;5.39848000;2024-03-29T04:56:52;2.25;;;1.13;;
7829;SDS011;3960;51.86894000;5.39848000;2024-03-29T04:59:17;2.47;;;0.80;;
7829;SDS011;3960;51.86894000;5.39848000;2024-03-29T05:01:43;2.30;;;0.85;;
7829;SDS011;3960;51.86894000;5.39848000;2024-03-29T05:04:15;1.85;;;0.70;;
7829;SDS011;3960;51.86894000;5.39848000;2024-03-29T05:06:43;4.03;;;0.65;;
7829;SDS011;3960;51.86894000;5.39848000;2024-03-29T05:09:09;2.80;;;0.90;;
7829;SDS011;3960;51.86894000;5.39848000;2024-03-29T05:11:36;4.93;;;0.82;;
7829;SDS011;3960;51.86894000;5.39848000;2024-03-29T05:14:01;2.67;;;0.73;;
7829;SDS011;3960;51.86894000;5.39848000;2024-03-29T05:16:28;4.88;;;0.88;;
7829;SDS011;3960;51.86894000;5.39848000;2024-03-29T05:18:54;2.80;;;0.77;;
7829;SDS011;3960;51.86894000;5.39848000;2024-03-29T05:21:19;2.53;;;0.77;;
7829;SDS011;3960;51.86894000;5.39848000;2024-03-29T05:23:44;2.20;;;0.95;;
7829;SDS011;3960;51.86894000;5.39848000;2024-03-29T05:26:09;1.70;;;0.67;;
7829;SDS011;3960;51.86894000;5.39848000;2024-03-29T05:28:34;2.73;;;0.73;;
7829;SDS011;3960;51.86894000;5.39848000;2024-03-29T05:31:08;2.37;;;1.60;;
7829;SDS011;3960;51.86894000;5.39848000;2024-03-29T05:33:35;1.70;;;0.80;;
7829;SDS011;3960;51.86894000;5.39848000;2024-03-29T05:36:02;1.83;;;1.30;;
7829;SDS011;3960;51.86894000;5.39848000;2024-03-29T05:38:29;5.85;;;1.13;;
7829;SDS011;3960;51.86894000;5.39848000;2024-03-29T05:40:55;2.83;;;0.60;;
7829;SDS011;3960;51.86894000;5.39848000;2024-03-29T05:43:20;3.33;;;1.00;;
7829;SDS011;3960;51.86894000;5.39848000;2024-03-29T05:45:45;2.13;;;0.77;;
7829;SDS011;3960;51.86894000;5.39848000;2024-03-29T05:48:10;4.53;;;1.00;;
7829;SDS011;3960;51.86894000;5.39848000;2024-03-29T05:50:35;2.38;;;0.65;;
7829;SDS011;3960;51.86894000;5.39848000;2024-03-29T05:53:01;3.47;;;1.00;;
7829;SDS011;3960;51.86894000;5.39848000;2024-03-29T05:55:26;2.80;;;0.95;;
7829;SDS011;3960;51.86894000;5.39848000;2024-03-29T05:57:51;1.95;;;0.88;;
7829;SDS011;3960;51.86894000;5.39848000;2024-03-29T06:00:16;3.40;;;0.80;;
7829;SDS011;3960;51.86894000;5.39848000;2024-03-29T06:02:42;5.82;;;1.05;;
7829;SDS011;3960;51.86894000;5.39848000;2024-03-29T06:05:09;2.03;;;1.00;;
7829;SDS011;3960;51.86894000;5.39848000;2024-03-29T06:07:35;3.63;;;0.75;;
7829;SDS011;3960;51.86894000;5.39848000;2024-03-29T06:10:00;3.80;;;1.20;;
7829;SDS011;3960;51.86894000;5.39848000;2024-03-29T06:12:29;2.55;;;1.00;;
7829;SDS011;3960;51.86894000;5.39848000;2024-03-29T06:14:54;4.72;;;0.93;;
7829;SDS011;3960;51.86894000;5.39848000;2024-03-29T06:17:38;2.03;;;0.85;;
7829;SDS011;3960;51.86894000;5.39848000;2024-03-29T06:20:04;1.38;;;0.80;;
7829;SDS011;3960;51.86894000;5.39848000;2024-03-29T06:22:30;1.75;;;0.82;;
7829;SDS011;3960;51.86894000;5.39848000;2024-03-29T06:24:56;2.95;;;0.88;;
7829;SDS011;3960;51.86894000;5.39848000;2024-03-29T06:27:24;1.65;;;0.80;;
7829;SDS011;3960;51.86894000;5.39848000;2024-03-29T06:29:49;1.50;;;0.90;;
7829;SDS011;3960;51.86894000;5.39848000;2024-03-29T06:32:14;4.20;;;1.10;;
7829;SDS011;3960;51.86894000;5.39848000;2024-03-29T06:34:41;1.67;;;0.82;;
7829;SDS011;3960;51.86894000;5.39848000;2024-03-29T06:37:06;5.13;;;1.10;;
7829;SDS011;3960;51.86894000;5.39848000;2024-03-29T06:39:32;2.75;;;1.10;;
7829;SDS011;3960;51.86894000;5.39848000;2024-03-29T06:41:57;3.30;;;0.70;;
7829;SDS011;3960;51.86894000;5.39848000;2024-03-29T06:44:23;2.90;;;0.87;;
7829;SDS011;3960;51.86894000;5.39848000;2024-03-29T06:46:48;2.77;;;0.80;;
7829;SDS011;3960;51.86894000;5.39848000;2024-03-29T06:49:14;3.42;;;1.30;;
7829;SDS011;3960;51.86894000;5.39848000;2024-03-29T06:51:39;3.70;;;1.10;;
7829;SDS011;3960;51.86894000;5.39848000;2024-03-29T06:54:08;3.20;;;0.82;;
7829;SDS011;3960;51.86894000;5.39848000;2024-03-29T06:56:33;2.13;;;0.80;;
7829;SDS011;3960;51.86894000;5.39848000;2024-03-29T06:58:58;2.33;;;1.00;;
7829;SDS011;3960;51.86894000;5.39848000;2024-03-29T07:01:23;5.70;;;0.93;;
7829;SDS011;3960;51.86894000;5.39848000;2024-03-29T07:03:49;2.50;;;0.82;;
7829;SDS011;3960;51.86894000;5.39848000;2024-03-29T07:06:14;4.57;;;1.08;;
7829;SDS011;3960;51.86894000;5.39848000;2024-03-29T07:08:39;2.15;;;1.10;;
7829;SDS011;3960;51.86894000;5.39848000;2024-03-29T07:11:04;1.60;;;0.80;;
7829;SDS011;3960;51.86894000;5.39848000;2024-03-29T07:13:30;1.90;;;0.77;;
7829;SDS011;3960;51.86894000;5.39848000;2024-03-29T07:15:59;1.80;;;0.85;;
7829;SDS011;3960;51.86894000;5.39848000;2024-03-29T07:18:24;2.22;;;0.98;;
7829;SDS011;3960;51.86894000;5.39848000;2024-03-29T07:20:49;1.85;;;0.95;;
7829;SDS011;3960;51.86894000;5.39848000;2024-03-29T07:23:15;2.75;;;0.80;;
7829;SDS011;3960;51.86894000;5.39848000;2024-03-29T07:25:40;2.20;;;0.60;;
7829;SDS011;3960;51.86894000;5.39848000;2024-03-29T07:28:06;3.30;;;0.90;;
7829;SDS011;3960;51.86894000;5.39848000;2024-03-29T07:30:32;2.97;;;0.90;;
7829;SDS011;3960;51.86894000;5.39848000;2024-03-29T07:32:57;2.72;;;1.00;;
7829;SDS011;3960;51.86894000;5.39848000;2024-03-29T07:35:22;2.63;;;1.45;;
7829;SDS011;3960;51.86894000;5.39848000;2024-03-29T07:37:47;2.30;;;0.82;;
7829;SDS011;3960;51.86894000;5.39848000;2024-03-29T07:40:15;2.33;;;1.00;;
7829;SDS011;3960;51.86894000;5.39848000;2024-03-29T07:42:40;1.55;;;1.02;;
7829;SDS011;3960;51.86894000;5.39848000;2024-03-29T07:45:05;2.38;;;0.80;;
7829;SDS011;3960;51.86894000;5.39848000;2024-03-29T07:47:31;2.05;;;0.88;;
7829;SDS011;3960;51.86894000;5.39848000;2024-03-29T07:49:57;3.20;;;1.80;;
7829;SDS011;3960;51.86894000;5.39848000;2024-03-29T07:52:22;2.03;;;1.00;;
7829;SDS011;3960;51.86894000;5.39848000;2024-03-29T07:54:48;3.53;;;1.00;;
7829;SDS011;3960;51.86894000;5.39848000;2024-03-29T07:57:13;4.00;;;0.90;;
7829;SDS011;3960;51.86894000;5.39848000;2024-03-29T07:59:40;1.10;;;0.82;;
7829;SDS011;3960;51.86894000;5.39848000;2024-03-29T08:02:05;2.20;;;0.90;;
7829;SDS011;3960;51.86894000;5.39848000;2024-03-29T08:04:30;1.92;;;1.00;;
7829;SDS011;3960;51.86894000;5.39848000;2024-03-29T08:06:55;2.65;;;1.13;;
7829;SDS011;3960;51.86894000;5.39848000;2024-03-29T08:09:21;2.88;;;0.95;;
7829;SDS011;3960;51.86894000;5.39848000;2024-03-29T08:11:46;2.67;;;1.10;;
7829;SDS011;3960;51.86894000;5.39848000;2024-03-29T08:14:11;3.87;;;1.37;;
7829;SDS011;3960;51.86894000;5.39848000;2024-03-29T08:16:36;1.33;;;1.07;;
7829;SDS011;3960;51.86894000;5.39848000;2024-03-29T08:19:01;2.03;;;1.10;;
7829;SDS011;3960;51.86894000;5.39848000;2024-03-29T08:21:27;2.25;;;1.10;;
7829;SDS011;3960;51.86894000;5.39848000;2024-03-29T08:23:52;2.88;;;1.30;;
7829;SDS011;3960;51.86894000;5.39848000;2024-03-29T08:26:20;4.03;;;1.15;;
7829;SDS011;3960;51.86894000;5.39848000;2024-03-29T08:28:45;3.30;;;1.40;;
7829;SDS011;3960;51.86894000;5.39848000;2024-03-29T08:31:11;3.17;;;1.27;;
7829;SDS011;3960;51.86894000;5.39848000;2024-03-29T08:33:36;1.88;;;1.33;;
7829;SDS011;3960;51.86894000;5.39848000;2024-03-29T08:36:05;1.90;;;1.23;;
7829;SDS011;3960;51.86894000;5.39848000;2024-03-29T08:38:30;2.38;;;1.20;;
7829;SDS011;3960;51.86894000;5.39848000;2024-03-29T08:40:56;3.10;;;1.05;;
7829;SDS011;3960;51.86894000;5.39848000;2024-03-29T08:43:21;1.95;;;1.13;;
7829;SDS011;3960;51.86894000;5.39848000;2024-03-29T08:45:46;2.38;;;1.13;;
7829;SDS011;3960;51.86894000;5.39848000;2024-03-29T08:48:12;3.53;;;1.13;;
7829;SDS011;3960;51.86894000;5.39848000;2024-03-29T08:50:37;2.20;;;1.35;;
7829;SDS011;3960;51.86894000;5.39848000;2024-03-29T08:53:03;4.40;;;1.38;;
7829;SDS011;3960;51.86894000;5.39848000;2024-03-29T08:55:29;2.65;;;1.13;;
7829;SDS011;3960;51.86894000;5.39848000;2024-03-29T08:57:54;3.15;;;1.20;;
7829;SDS011;3960;51.86894000;5.39848000;2024-03-29T09:00:19;2.88;;;1.30;;
7829;SDS011;3960;51.86894000;5.39848000;2024-03-29T09:02:46;3.28;;;1.00;;
7829;SDS011;3960;51.86894000;5.39848000;2024-03-29T09:05:11;3.13;;;1.33;;
7829;SDS011;3960;51.86894000;5.39848000;2024-03-29T09:07:36;1.80;;;1.10;;
7829;SDS011;3960;51.86894000;5.39848000;2024-03-29T09:10:02;1.77;;;1.00;;
7829;SDS011;3960;51.86894000;5.39848000;2024-03-29T09:12:28;2.60;;;1.42;;
7829;SDS011;3960;51.86894000;5.39848000;2024-03-29T09:14:53;3.90;;;1.80;;
7829;SDS011;3960;51.86894000;5.39848000;2024-03-29T09:17:19;4.13;;;2.73;;
7829;SDS011;3960;51.86894000;5.39848000;2024-03-29T09:19:44;8.32;;;2.83;;
7829;SDS011;3960;51.86894000;5.39848000;2024-03-29T09:22:09;4.13;;;2.80;;
7829;SDS011;3960;51.86894000;5.39848000;2024-03-29T09:24:34;4.40;;;2.20;;
7829;SDS011;3960;51.86894000;5.39848000;2024-03-29T09:27:00;2.58;;;1.90;;
7829;SDS011;3960;51.86894000;5.39848000;2024-03-29T09:29:25;3.85;;;2.08;;
7829;SDS011;3960;51.86894000;5.39848000;2024-03-29T09:31:50;3.13;;;1.87;;
7829;SDS011;3960;51.86894000;5.39848000;2024-03-29T09:34:16;5.15;;;1.90;;
7829;SDS011;3960;51.86894000;5.39848000;2024-03-29T09:36:41;2.23;;;1.60;;
7829;SDS011;3960;51.86894000;5.39848000;2024-03-29T09:39:06;3.13;;;2.00;;
7829;SDS011;3960;51.86894000;5.39848000;2024-03-29T09:41:33;3.78;;;1.95;;
7829;SDS011;3960;51.86894000;5.39848000;2024-03-29T09:44:02;2.70;;;1.80;;
7829;SDS011;3960;51.86894000;5.39848000;2024-03-29T09:46:27;3.65;;;1.90;;
7829;SDS011;3960;51.86894000;5.39848000;2024-03-29T09:48:53;5.07;;;1.90;;
7829;SDS011;3960;51.86894000;5.39848000;2024-03-29T09:51:19;3.58;;;1.92;;
7829;SDS011;3960;51.86894000;5.39848000;2024-03-29T09:53:46;3.00;;;1.90;;
7829;SDS011;3960;51.86894000;5.39848000;2024-03-29T09:56:11;3.08;;;1.67;;
7829;SDS011;3960;51.86894000;5.39848000;2024-03-29T09:58:37;2.45;;;1.48;;
7829;SDS011;3960;51.86894000;5.39848000;2024-03-29T10:01:03;1.50;;;1.40;;
7829;SDS011;3960;51.86894000;5.39848000;2024-03-29T10:03:29;2.75;;;1.50;;
7829;SDS011;3960;51.86894000;5.39848000;2024-03-29T10:05:57;2.58;;;1.27;;
7829;SDS011;3960;51.86894000;5.39848000;2024-03-29T10:08:26;1.88;;;0.98;;
7829;SDS011;3960;51.86894000;5.39848000;2024-03-29T10:10:52;1.60;;;1.17;;
7829;SDS011;3960;51.86894000;5.39848000;2024-03-29T10:13:17;2.58;;;1.30;;
7829;SDS011;3960;51.86894000;5.39848000;2024-03-29T10:15:43;2.03;;;1.10;;
7829;SDS011;3960;51.86894000;5.39848000;2024-03-29T10:18:14;3.70;;;1.23;;
7829;SDS011;3960;51.86894000;5.39848000;2024-03-29T10:20:39;3.22;;;1.60;;
7829;SDS011;3960;51.86894000;5.39848000;2024-03-29T10:23:04;1.30;;;1.20;;
7829;SDS011;3960;51.86894000;5.39848000;2024-03-29T10:25:33;2.25;;;1.38;;
7829;SDS011;3960;51.86894000;5.39848000;2024-03-29T10:28:01;3.25;;;1.27;;
7829;SDS011;3960;51.86894000;5.39848000;2024-03-29T10:30:29;4.13;;;1.70;;
7829;SDS011;3960;51.86894000;5.39848000;2024-03-29T10:32:57;2.97;;;1.50;;
7829;SDS011;3960;51.86894000;5.39848000;2024-03-29T10:35:25;2.55;;;1.35;;
7829;SDS011;3960;51.86894000;5.39848000;2024-03-29T10:37:51;3.20;;;1.65;;
7829;SDS011;3960;51.86894000;5.39848000;2024-03-29T10:40:17;3.53;;;1.52;;
7829;SDS011;3960;51.86894000;5.39848000;2024-03-29T10:42:44;2.10;;;1.40;;
7829;SDS011;3960;51.86894000;5.39848000;2024-03-29T10:45:10;4.68;;;1.70;;
7829;SDS011;3960;51.86894000;5.39848000;2024-03-29T10:47:35;3.30;;;1.47;;
7829;SDS011;3960;51.86894000;5.39848000;2024-03-29T10:50:04;2.65;;;1.40;;
7829;SDS011;3960;51.86894000;5.39848000;2024-03-29T10:52:30;2.65;;;1.60;;
7829;SDS011;3960;51.86894000;5.39848000;2024-03-29T10:54:55;2.80;;;1.52;;
7829;SDS011;3960;51.86894000;5.39848000;2024-03-29T10:57:24;3.92;;;1.55;;
7829;SDS011;3960;51.86894000;5.39848000;2024-03-29T11:02:24;2.97;;;1.58;;
7829;SDS011;3960;51.86894000;5.39848000;2024-03-29T11:04:54;4.13;;;1.60;;
7829;SDS011;3960;51.86894000;5.39848000;2024-03-29T11:07:20;4.00;;;1.55;;
7829;SDS011;3960;51.86894000;5.39848000;2024-03-29T11:09:49;2.22;;;1.17;;
7829;SDS011;3960;51.86894000;5.39848000;2024-03-29T11:12:17;3.22;;;1.50;;
7829;SDS011;3960;51.86894000;5.39848000;2024-03-29T11:14:45;2.53;;;1.40;;
7829;SDS011;3960;51.86894000;5.39848000;2024-03-29T11:17:12;2.50;;;1.52;;
7829;SDS011;3960;51.86894000;5.39848000;2024-03-29T11:19:39;1.95;;;1.38;;
7829;SDS011;3960;51.86894000;5.39848000;2024-03-29T11:22:04;2.17;;;1.20;;
7829;SDS011;3960;51.86894000;5.39848000;2024-03-29T11:24:29;1.85;;;1.20;;
7829;SDS011;3960;51.86894000;5.39848000;2024-03-29T11:26:56;2.42;;;1.23;;
7829;SDS011;3960;51.86894000;5.39848000;2024-03-29T11:29:22;3.72;;;1.40;;
7829;SDS011;3960;51.86894000;5.39848000;2024-03-29T11:31:48;2.42;;;1.38;;
7829;SDS011;3960;51.86894000;5.39848000;2024-03-29T11:34:20;2.83;;;1.13;;
7829;SDS011;3960;51.86894000;5.39848000;2024-03-29T11:36:46;6.35;;;1.60;;
7829;SDS011;3960;51.86894000;5.39848000;2024-03-29T11:39:21;2.97;;;1.40;;
7829;SDS011;3960;51.86894000;5.39848000;2024-03-29T11:41:47;4.30;;;1.20;;
7829;SDS011;3960;51.86894000;5.39848000;2024-03-29T11:44:13;1.88;;;1.25;;
7829;SDS011;3960;51.86894000;5.39848000;2024-03-29T11:46:38;2.07;;;1.23;;
7829;SDS011;3960;51.86894000;5.39848000;2024-03-29T11:49:04;2.30;;;1.13;;
7829;SDS011;3960;51.86894000;5.39848000;2024-03-29T11:51:30;1.70;;;1.03;;
7829;SDS011;3960;51.86894000;5.39848000;2024-03-29T11:53:55;2.72;;;1.20;;
7829;SDS011;3960;51.86894000;5.39848000;2024-03-29T11:56:21;2.20;;;1.30;;
7829;SDS011;3960;51.86894000;5.39848000;2024-03-29T11:58:47;1.65;;;1.10;;
7829;SDS011;3960;51.86894000;5.39848000;2024-03-29T12:01:13;2.35;;;1.25;;
7829;SDS011;3960;51.86894000;5.39848000;2024-03-29T12:03:39;3.17;;;1.45;;
7829;SDS011;3960;51.86894000;5.39848000;2024-03-29T12:06:05;5.65;;;1.50;;
7829;SDS011;3960;51.86894000;5.39848000;2024-03-29T12:08:31;1.98;;;1.40;;
7829;SDS011;3960;51.86894000;5.39848000;2024-03-29T12:10:57;3.30;;;1.52;;
7829;SDS011;3960;51.86894000;5.39848000;2024-03-29T12:13:22;4.07;;;1.40;;
7829;SDS011;3960;51.86894000;5.39848000;2024-03-29T12:15:48;3.03;;;1.63;;
7829;SDS011;3960;51.86894000;5.39848000;2024-03-29T12:18:13;2.70;;;1.50;;
7829;SDS011;3960;51.86894000;5.39848000;2024-03-29T12:20:41;2.25;;;1.40;;
7829;SDS011;3960;51.86894000;5.39848000;2024-03-29T12:23:08;2.00;;;1.35;;
7829;SDS011;3960;51.86894000;5.39848000;2024-03-29T12:25:38;2.20;;;1.50;;
7829;SDS011;3960;51.86894000;5.39848000;2024-03-29T12:28:03;2.30;;;1.27;;
7829;SDS011;3960;51.86894000;5.39848000;2024-03-29T12:30:29;2.88;;;1.35;;
7829;SDS011;3960;51.86894000;5.39848000;2024-03-29T12:35:26;2.63;;;1.20;;
7829;SDS011;3960;51.86894000;5.39848000;2024-03-29T12:37:52;1.48;;;1.10;;
7829;SDS011;3960;51.86894000;5.39848000;2024-03-29T12:40:18;4.28;;;1.50;;
7829;SDS011;3960;51.86894000;5.39848000;2024-03-29T12:42:50;4.50;;;1.40;;
7829;SDS011;3960;51.86894000;5.39848000;2024-03-29T12:45:19;2.80;;;1.30;;
7829;SDS011;3960;51.86894000;5.39848000;2024-03-29T12:47:45;2.47;;;1.38;;
7829;SDS011;3960;51.86894000;5.39848000;2024-03-29T12:50:12;2.83;;;1.60;;
7829;SDS011;3960;51.86894000;5.39848000;2024-03-29T12:52:41;2.00;;;1.25;;
7829;SDS011;3960;51.86894000;5.39848000;2024-03-29T12:55:07;2.00;;;1.30;;
7829;SDS011;3960;51.86894000;5.39848000;2024-03-29T12:57:40;1.60;;;1.23;;
7829;SDS011;3960;51.86894000;5.39848000;2024-03-29T13:00:07;2.08;;;1.42;;
7829;SDS011;3960;51.86894000;5.39848000;2024-03-29T13:02:36;2.97;;;1.20;;
7829;SDS011;3960;51.86894000;5.39848000;2024-03-29T13:05:05;2.00;;;1.15;;
7829;SDS011;3960;51.86894000;5.39848000;2024-03-29T13:07:30;1.92;;;1.30;;
7829;SDS011;3960;51.86894000;5.39848000;2024-03-29T13:09:56;1.63;;;1.08;;